Anchor Point, AK

5:05 AM AKDT on August 20, 2019 (GMT -0800)
Anchor Point | | Change Station
Active Advisory: Dense Smoke Advisory

Elev 318 ft 59.79 °N, 151.73 °W | Updated 2 seconds ago

Clear
Clear
46.2 °F
Feels Like 46 °F
N
0
Wind Variable Wind from West
Gusts 2.0 mph

Today
High -- | Low -- °F
--% Chance of Precip.
Yesterday
High -- | Low -- °F
Precip. -- in
Pressure 29.84 in
Visibility 10.0 miles
Clouds Few 12000 ft
Windchill 46 °F
Dew Point 38 °F
Humidity 75%
Rainfall 0.00 in
Snow Depth Not available.
6:34 AM 9:45 PM
Waning Gibbous, 79% visible
METAR PAHO 201253Z AUTO 00000KT 10SM FEW120 08/04 A2984 RMK AO2 SLP104 T00780044 TSNO
Pressure 29.84 in
Visibility 10.0 miles
Clouds Few 12000 ft
Windchill 46 °F
Dew Point 38 °F
Humidity 75%
Rainfall 0.00 in
Snow Depth Not available.
6:34 AM 9:45 PM
Waning Gibbous, 79% visible
METAR PAHO 201253Z AUTO 00000KT 10SM FEW120 08/04 A2984 RMK AO2 SLP104 T00780044 TSNO

Get Your Daily Forecast Email!

Thanks for signing up!

Be on the lookout for a verification email in your inbox.

You'll start receiving severe weather alerts in your inbox..

×

10-Day Weather Forecast

Almanac

Astronomy

Aug. 20, 2019 Rise Set
Actual Time
Civil Twilight
Nautical Twilight
Astronomical Twilight
Moon
Length of Visible Light
Length of Day
Tomorrow will be .
, % of the Moon is Illuminated

Today's Extremes

State Highs State Lows

Community

WunderPhotos

Category 6

Welcome to Category 6. This is the collective home for Weather Underground's featured writeups by Dr. Jeff Masters (right), Bob Henson (left), Chris Burt, and other regular contributors.

Nearby

Air Quality

  Air Quality AQ Index Pollutant
Not available.

Snow Depth

Station Depth Elevation

Earthquake Activity

City Distance Mag. Time & Date
Minimum magnitude displayed is 2.5.

Coastal Water Temperatures

Place Temperature

Stations

Nearby Weather Stations

Station Location Temp. Windchill Dew Point Humidity Wind Precip. Elev Updated Type
                   

Watches & Warnings

Dense Smoke Advisory
Issued: 4:43 AM AKDT Aug. 20, 2019 – National Weather Service

... Dense smoke advisory remains in effect until 2 PM akdt this
afternoon for the interior Kenai Peninsula...

* location... interior Kenai Peninsula, including the Sterling
Highway corridor from Sterling to Cooper Landing.

* Smoke... smoke from the Swan Lake fire will reduce visibilities
to one quarter mile or less at times.

* Timing... through early Tuesday afternoon.

* Impacts... travel may be difficult due to low visibility.
Persons with respiratory problems may have difficulty
breathing when outside. For more information on air quality,
please visit www.Dec.Alaska.Gov.

Precautionary/preparedness actions...

A dense smoke advisory means fires will create widespread smoke,
limiting visibilities. If driving, slow down, use your
headlights, and leave plenty of distance ahead of you in case a
sudden stop is needed.